createdAt,value
2018-04-17T00:00:01.503Z,4.97
2018-04-17T00:02:29.791Z,5.17
2018-04-17T00:04:58.024Z,4.90
2018-04-17T00:07:25.617Z,5.47
2018-04-17T00:09:53.895Z,4.77
2018-04-17T00:12:22.170Z,4.90
2018-04-17T00:14:50.462Z,5.20
2018-04-17T00:17:17.944Z,5.50
2018-04-17T00:19:45.500Z,5.10
2018-04-17T00:22:13.064Z,4.83
2018-04-17T00:24:40.532Z,5.30
2018-04-17T00:27:08.074Z,5.33
2018-04-17T00:29:35.550Z,5.37
2018-04-17T00:32:03.048Z,5.20
2018-04-17T00:34:31.289Z,5.37
2018-04-17T00:36:58.784Z,5.23
2018-04-17T00:39:27.031Z,5.03
2018-04-17T00:41:54.512Z,5.43
2018-04-17T00:44:22.763Z,4.50
2018-04-17T00:46:50.250Z,5.20
2018-04-17T00:49:18.496Z,5.30
2018-04-17T00:51:46.024Z,5.33
2018-04-17T00:54:13.582Z,4.90
2018-04-17T00:56:41.144Z,4.77
2018-04-17T00:59:08.626Z,4.77
2018-04-17T01:01:36.124Z,4.77
2018-04-17T01:04:04.355Z,4.63
2018-04-17T01:06:31.953Z,4.83
2018-04-17T01:09:00.195Z,5.40
2018-04-17T01:11:27.735Z,5.07
2018-04-17T01:13:55.214Z,5.17
2018-04-17T01:16:22.905Z,5.30
2018-04-17T01:18:51.192Z,5.70
2018-04-17T01:21:19.446Z,5.30
2018-04-17T01:23:46.927Z,5.50
2018-04-17T01:26:15.279Z,5.10
2018-04-17T01:28:42.760Z,5.80
2018-04-17T01:31:11.059Z,5.53
2018-04-17T01:33:38.575Z,5.27
2018-04-17T01:36:06.075Z,5.53
2018-04-17T01:38:33.563Z,5.70
2018-04-17T01:41:01.092Z,5.17
2018-04-17T01:43:28.868Z,5.23
2018-04-17T01:45:56.393Z,5.83
2018-04-17T01:48:23.889Z,5.23
2018-04-17T01:50:51.357Z,5.50
2018-04-17T01:53:18.843Z,5.50
2018-04-17T01:55:46.423Z,6.10
2018-04-17T01:58:14.676Z,5.57
2018-04-17T02:00:42.145Z,5.47
2018-04-17T02:03:10.412Z,5.60
2018-04-17T02:05:37.887Z,5.47
2018-04-17T02:08:06.135Z,5.93
2018-04-17T02:10:33.649Z,6.00
2018-04-17T02:13:01.152Z,6.00
2018-04-17T02:15:29.383Z,5.60
2018-04-17T02:17:56.864Z,6.53
2018-04-17T02:20:24.322Z,6.17
2018-04-17T02:22:51.808Z,5.90
2018-04-17T02:25:19.273Z,6.10
2018-04-17T02:27:47.548Z,6.40
2018-04-17T02:30:15.829Z,6.40
2018-04-17T02:32:44.082Z,5.97
2018-04-17T02:35:11.551Z,6.00
2018-04-17T02:37:39.173Z,7.30
2018-04-17T02:40:06.711Z,6.50
2018-04-17T02:42:34.192Z,6.80
2018-04-17T02:45:01.663Z,6.30
2018-04-17T02:47:29.152Z,6.57
2018-04-17T02:49:57.416Z,6.00
2018-04-17T02:52:24.903Z,6.83
2018-04-17T02:54:52.367Z,6.97
2018-04-17T02:57:19.880Z,6.30
2018-04-17T02:59:47.447Z,5.83
2018-04-17T03:02:15.001Z,6.20
2018-04-17T03:04:42.464Z,6.20
2018-04-17T03:07:09.948Z,5.53
2018-04-17T03:09:37.423Z,6.67
2018-04-17T03:12:04.913Z,6.03
2018-04-17T03:14:32.375Z,6.40
2018-04-17T03:16:59.854Z,6.40
2018-04-17T03:19:28.124Z,6.30
2018-04-17T03:21:55.651Z,6.77
2018-04-17T03:24:23.141Z,6.00
2018-04-17T03:26:51.399Z,6.80
2018-04-17T03:29:18.856Z,6.73
2018-04-17T03:31:46.339Z,6.80
2018-04-17T03:34:14.568Z,5.93
2018-04-17T03:36:42.045Z,6.23
2018-04-17T03:39:09.680Z,6.10
2018-04-17T03:41:37.143Z,6.30
2018-04-17T03:44:04.644Z,6.40
2018-04-17T03:46:32.911Z,6.87
2018-04-17T03:49:00.399Z,6.50
2018-04-17T03:51:27.884Z,6.70
2018-04-17T03:53:55.383Z,6.60
2018-04-17T03:56:22.851Z,6.67
2018-04-17T03:58:51.162Z,6.83
2018-04-17T04:01:18.721Z,6.53
2018-04-17T04:03:46.208Z,6.67
2018-04-17T04:06:13.676Z,6.50
2018-04-17T04:08:41.192Z,6.43
2018-04-17T04:11:08.754Z,6.80
2018-04-17T04:13:36.241Z,6.73
2018-04-17T04:16:03.709Z,6.97
2018-04-17T04:18:43.088Z,7.10
2018-04-17T04:21:22.280Z,6.90
2018-04-17T04:24:01.752Z,6.47
2018-04-17T04:26:31.772Z,6.63
2018-04-17T04:29:00.022Z,6.87
2018-04-17T04:31:27.488Z,7.33
2018-04-17T04:33:55.803Z,6.70
2018-04-17T04:36:23.264Z,6.37
2018-04-17T04:38:51.717Z,6.97
2018-04-17T04:41:19.955Z,7.57
2018-04-17T04:43:47.439Z,7.43
2018-04-17T04:46:15.679Z,7.40
2018-04-17T04:48:43.173Z,7.60
2018-04-17T04:51:11.421Z,7.13
2018-04-17T04:53:39.244Z,8.20
2018-04-17T04:56:06.717Z,8.10
2018-04-17T04:58:34.268Z,8.63
2018-04-17T05:01:01.739Z,7.93
2018-04-17T05:06:03.177Z,9.53
2018-04-17T05:08:30.742Z,9.90
2018-04-17T05:10:58.267Z,9.63
2018-04-17T05:13:26.541Z,9.07
2018-04-17T05:15:54.000Z,9.33
2018-04-17T05:18:22.287Z,8.93
2018-04-17T05:20:50.559Z,14.23
2018-04-17T05:23:18.810Z,9.40
2018-04-17T05:25:46.291Z,8.63
2018-04-17T05:28:14.539Z,8.73
2018-04-17T05:30:42.093Z,8.40
2018-04-17T05:33:09.592Z,8.70
2018-04-17T05:35:37.818Z,9.30
2018-04-17T05:38:05.392Z,10.73
2018-04-17T05:40:32.884Z,10.27
2018-04-17T05:43:01.172Z,9.63
2018-04-17T05:45:28.654Z,9.47
2018-04-17T05:47:56.132Z,9.27
2018-04-17T05:50:23.609Z,8.43
2018-04-17T05:52:51.218Z,8.07
2018-04-17T05:55:18.726Z,8.13
2018-04-17T05:57:46.211Z,7.73
2018-04-17T06:00:14.437Z,7.50
2018-04-17T06:02:41.908Z,7.93
2018-04-17T06:05:09.402Z,8.60
2018-04-17T06:07:36.876Z,7.90
2018-04-17T06:10:04.393Z,8.53
2018-04-17T06:12:31.864Z,7.97
2018-04-17T06:15:00.129Z,7.43
2018-04-17T06:17:28.374Z,7.80
2018-04-17T06:19:56.008Z,7.60
2018-04-17T06:22:23.484Z,7.80
2018-04-17T06:24:50.984Z,7.60
2018-04-17T06:27:19.220Z,8.20
2018-04-17T06:29:46.725Z,7.77
2018-04-17T06:32:15.007Z,8.20
2018-04-17T06:34:43.264Z,8.20
2018-04-17T06:37:10.744Z,8.50
2018-04-17T06:39:38.989Z,8.80
2018-04-17T06:42:07.099Z,8.43
2018-04-17T06:44:35.335Z,7.93
2018-04-17T06:47:02.843Z,8.13
2018-04-17T06:49:30.342Z,8.40
2018-04-17T06:51:57.807Z,8.77
2018-04-17T06:54:25.279Z,8.13
2018-04-17T06:56:53.590Z,7.50
2018-04-17T06:59:21.083Z,7.67
2018-04-17T07:01:48.545Z,8.13
2018-04-17T07:04:16.056Z,7.43
2018-04-17T07:06:43.526Z,7.67
2018-04-17T07:09:11.011Z,6.70
2018-04-17T07:11:38.627Z,6.83
2018-04-17T07:14:06.062Z,7.93
2018-04-17T07:16:34.332Z,7.70
2018-04-17T07:19:01.842Z,6.77
2018-04-17T07:21:29.327Z,6.80
2018-04-17T07:23:56.943Z,7.93
2018-04-17T07:26:24.412Z,8.90
2018-04-17T07:28:51.895Z,9.23
2018-04-17T07:31:19.393Z,9.80
2018-04-17T07:33:47.717Z,10.23
2018-04-17T07:36:15.187Z,9.77
2018-04-17T07:38:42.695Z,9.50
2018-04-17T07:41:10.196Z,10.53
2018-04-17T07:43:37.705Z,9.93
2018-04-17T07:46:05.991Z,10.77
2018-04-17T07:48:45.563Z,9.60
2018-04-17T07:51:13.032Z,9.67
2018-04-17T07:53:40.510Z,9.70
2018-04-17T07:56:07.989Z,12.03
2018-04-17T07:58:36.239Z,11.43
2018-04-17T08:01:03.750Z,11.10
2018-04-17T08:03:31.229Z,12.97
2018-04-17T08:05:58.734Z,11.57
2018-04-17T08:08:27.012Z,13.10
2018-04-17T08:10:55.243Z,14.07
2018-04-17T08:13:22.733Z,13.67
2018-04-17T08:15:50.999Z,12.23
2018-04-17T08:18:19.262Z,12.13
2018-04-17T08:20:46.765Z,12.47
2018-04-17T08:23:15.005Z,13.27
2018-04-17T08:25:42.496Z,13.00
2018-04-17T08:28:10.737Z,14.07
2018-04-17T08:30:38.244Z,13.13
2018-04-17T08:33:05.720Z,13.77
2018-04-17T08:35:33.199Z,13.97
2018-04-17T08:38:00.677Z,13.83
2018-04-17T08:40:28.195Z,13.43
2018-04-17T08:42:55.679Z,14.00
2018-04-17T08:45:23.168Z,14.17
2018-04-17T08:47:51.444Z,13.77
2018-04-17T08:50:19.686Z,14.03
2018-04-17T08:52:47.282Z,12.60
2018-04-17T08:55:15.530Z,14.07
2018-04-17T08:57:43.010Z,13.93
2018-04-17T09:00:11.271Z,14.60
2018-04-17T09:02:38.783Z,15.40
2018-04-17T09:05:06.280Z,15.67
2018-04-17T09:07:33.737Z,14.73
2018-04-17T09:10:01.988Z,15.17
2018-04-17T09:12:29.468Z,15.73
2018-04-17T09:14:57.007Z,17.00
2018-04-17T09:17:24.479Z,17.60
2018-04-17T09:19:52.793Z,16.30
2018-04-17T09:22:21.250Z,16.90
2018-04-17T09:24:50.264Z,16.87
2018-04-17T09:27:18.541Z,15.50
2018-04-17T09:29:46.810Z,16.47
2018-04-17T09:32:15.060Z,15.77
2018-04-17T09:34:42.540Z,15.50
2018-04-17T09:37:10.038Z,17.00
2018-04-17T09:39:37.528Z,14.93
2018-04-17T09:42:06.582Z,16.67
2018-04-17T09:44:34.076Z,15.00
2018-04-17T09:47:01.600Z,17.63
2018-04-17T09:49:29.237Z,15.77
2018-04-17T09:51:57.470Z,16.27
2018-04-17T09:54:24.957Z,17.07
2018-04-17T09:56:53.195Z,15.70
2018-04-17T09:59:20.704Z,15.97
2018-04-17T10:01:48.247Z,16.07
2018-04-17T10:04:16.522Z,15.03
2018-04-17T10:06:44.765Z,15.33
2018-04-17T10:09:12.310Z,14.70
2018-04-17T10:11:39.736Z,14.30
2018-04-17T10:14:07.249Z,14.17
2018-04-17T10:16:35.503Z,15.00
2018-04-17T10:19:02.992Z,13.67
2018-04-17T10:21:31.265Z,13.47
2018-04-17T10:23:59.557Z,12.97
2018-04-17T10:26:27.807Z,12.53
2018-04-17T10:28:55.268Z,13.40
2018-04-17T10:31:22.838Z,11.70
2018-04-17T10:33:50.333Z,12.00
2018-04-17T10:36:17.832Z,11.00
2018-04-17T10:38:45.311Z,10.30
2018-04-17T10:41:12.803Z,9.53
2018-04-17T10:43:40.327Z,5.77
2018-04-17T10:46:08.576Z,4.23
2018-04-17T10:48:36.052Z,7.00
2018-04-17T10:51:03.656Z,6.30
2018-04-17T10:53:31.124Z,6.00
2018-04-17T10:55:58.613Z,8.17
2018-04-17T10:58:26.091Z,9.73
2018-04-17T11:00:53.586Z,8.73
2018-04-17T11:03:21.088Z,7.00
2018-04-17T11:05:48.556Z,7.90
2018-04-17T11:08:16.022Z,7.40
2018-04-17T11:10:43.533Z,7.07
2018-04-17T11:13:11.019Z,7.17
2018-04-17T11:15:38.499Z,7.10
2018-04-17T11:18:06.769Z,6.40
2018-04-17T11:20:34.243Z,6.30
2018-04-17T11:23:02.473Z,6.17
2018-04-17T11:25:29.955Z,6.60
2018-04-17T11:27:57.442Z,6.23
2018-04-17T11:30:25.686Z,5.47
2018-04-17T11:32:53.148Z,5.13
2018-04-17T11:35:20.678Z,3.73
2018-04-17T11:37:48.197Z,3.27
2018-04-17T11:40:15.695Z,3.97
2018-04-17T11:42:43.159Z,3.57
2018-04-17T11:45:10.756Z,3.40
2018-04-17T11:47:38.980Z,3.57
2018-04-17T11:50:06.481Z,3.40
2018-04-17T11:52:34.736Z,4.57
2018-04-17T11:55:02.226Z,4.27
2018-04-17T11:57:30.493Z,3.27
2018-04-17T11:59:58.752Z,4.77
2018-04-17T12:02:26.345Z,4.10
2018-04-17T12:04:53.869Z,4.07
2018-04-17T12:07:21.333Z,3.43
2018-04-17T12:09:48.839Z,3.87
2018-04-17T12:12:16.345Z,4.40
2018-04-17T12:14:43.844Z,4.87
2018-04-17T12:17:11.305Z,4.53
2018-04-17T12:19:38.789Z,4.77
2018-04-17T12:22:06.256Z,3.00
2018-04-17T12:24:33.840Z,3.63
2018-04-17T12:27:01.318Z,3.37
2018-04-17T12:29:28.803Z,2.60
2018-04-17T12:31:56.265Z,2.37
2018-04-17T12:34:23.742Z,2.63
2018-04-17T12:36:51.215Z,3.13
2018-04-17T12:39:18.689Z,2.87
2018-04-17T12:41:46.949Z,3.23
2018-04-17T12:44:15.203Z,3.63
2018-04-17T12:46:42.704Z,2.40
2018-04-17T12:49:10.948Z,2.60
2018-04-17T12:51:38.439Z,2.80
2018-04-17T12:54:06.706Z,2.60
2018-04-17T12:56:34.949Z,3.27
2018-04-17T12:59:02.471Z,2.87
2018-04-17T13:01:30.011Z,3.13
2018-04-17T13:03:58.239Z,2.50
2018-04-17T13:06:25.736Z,3.00
2018-04-17T13:08:53.976Z,3.07
2018-04-17T13:11:21.464Z,2.70
2018-04-17T13:13:49.696Z,2.87
2018-04-17T13:16:17.207Z,2.90
2018-04-17T13:18:45.454Z,2.97
2018-04-17T13:21:12.939Z,2.90
2018-04-17T13:23:41.185Z,3.23
2018-04-17T13:26:08.683Z,2.90
2018-04-17T13:28:36.147Z,3.43
2018-04-17T13:31:03.717Z,3.10
2018-04-17T13:33:31.246Z,2.70
2018-04-17T13:35:59.489Z,2.67
2018-04-17T13:38:26.974Z,2.73
2018-04-17T13:40:55.220Z,2.60
2018-04-17T13:43:22.697Z,2.20
2018-04-17T13:45:50.212Z,2.20
2018-04-17T13:48:17.671Z,2.10
2018-04-17T13:50:45.147Z,2.40
2018-04-17T13:53:12.623Z,2.13
2018-04-17T13:55:40.099Z,2.13
2018-04-17T13:58:08.644Z,2.23
2018-04-17T14:00:36.142Z,2.70
2018-04-17T14:03:04.363Z,2.50
2018-04-17T14:05:31.878Z,2.60
2018-04-17T14:08:00.108Z,2.50
2018-04-17T14:10:27.603Z,2.50
2018-04-17T14:12:55.854Z,2.40
2018-04-17T14:15:23.335Z,2.20
2018-04-17T14:17:51.584Z,2.70
2018-04-17T14:20:19.110Z,2.63
2018-04-17T14:22:46.590Z,2.60
2018-04-17T14:25:14.068Z,2.43
2018-04-17T14:27:41.548Z,2.00
2018-04-17T14:30:09.828Z,2.70
2018-04-17T14:32:37.405Z,2.17
2018-04-17T14:35:04.881Z,2.60
2018-04-17T14:37:32.371Z,1.80
2018-04-17T14:39:59.865Z,2.27
2018-04-17T14:42:27.329Z,2.17
2018-04-17T14:44:54.893Z,2.27
2018-04-17T14:47:22.411Z,2.50
2018-04-17T14:49:50.682Z,3.30
2018-04-17T14:52:18.180Z,2.70
2018-04-17T14:54:45.693Z,2.40
2018-04-17T14:57:13.248Z,2.10
2018-04-17T14:59:40.711Z,2.20
2018-04-17T15:02:08.270Z,2.40
2018-04-17T15:04:35.735Z,2.53
2018-04-17T15:07:03.228Z,2.20
2018-04-17T15:09:30.688Z,2.30
2018-04-17T15:11:58.184Z,1.83
2018-04-17T15:14:25.642Z,2.20
2018-04-17T15:16:53.145Z,2.03
2018-04-17T15:19:20.612Z,2.20
2018-04-17T15:21:48.095Z,1.98
2018-04-17T15:24:15.562Z,2.08
2018-04-17T15:26:43.048Z,1.87
2018-04-17T15:29:10.511Z,2.10
2018-04-17T15:31:38.765Z,1.90
2018-04-17T15:34:06.228Z,2.17
2018-04-17T15:36:33.712Z,2.10
2018-04-17T15:39:01.944Z,2.22
2018-04-17T15:41:29.535Z,2.37
2018-04-17T15:43:57.808Z,1.98
2018-04-17T15:46:25.299Z,1.60
2018-04-17T15:48:52.934Z,2.00
2018-04-17T15:51:21.200Z,1.58
2018-04-17T15:53:48.687Z,1.80
2018-04-17T15:56:16.189Z,2.30
2018-04-17T15:58:43.659Z,2.00
2018-04-17T16:01:11.139Z,2.33
2018-04-17T16:03:39.373Z,2.15
2018-04-17T16:06:06.859Z,2.10
2018-04-17T16:08:34.367Z,1.80
2018-04-17T16:11:01.855Z,1.90
2018-04-17T16:13:29.331Z,2.30
2018-04-17T16:15:56.833Z,2.28
2018-04-17T16:18:24.337Z,2.30
2018-04-17T16:20:51.919Z,2.10
2018-04-17T16:23:20.163Z,2.47
2018-04-17T16:25:47.635Z,2.50
2018-04-17T16:28:15.091Z,2.78
2018-04-17T16:30:42.819Z,2.00
2018-04-17T16:33:10.288Z,2.70
2018-04-17T16:35:37.783Z,2.37
2018-04-17T16:38:06.016Z,2.00
2018-04-17T16:40:33.523Z,2.58
2018-04-17T16:43:01.749Z,2.70
2018-04-17T16:45:29.228Z,2.27
2018-04-17T16:47:56.699Z,2.63
2018-04-17T16:50:24.963Z,2.43
2018-04-17T16:52:52.456Z,2.55
2018-04-17T16:55:19.917Z,2.57
2018-04-17T16:57:48.184Z,2.50
2018-04-17T17:00:16.419Z,2.83
2018-04-17T17:02:43.902Z,2.70
2018-04-17T17:05:11.373Z,2.67
2018-04-17T17:07:39.625Z,2.40
2018-04-17T17:10:07.105Z,2.77
2018-04-17T17:12:35.359Z,4.57
2018-04-17T17:15:02.862Z,3.50
2018-04-17T17:17:30.339Z,2.90
2018-04-17T17:19:57.802Z,2.90
2018-04-17T17:22:25.296Z,2.60
2018-04-17T17:24:52.789Z,3.03
2018-04-17T17:27:20.288Z,2.97
2018-04-17T17:29:47.809Z,3.07
2018-04-17T17:32:15.318Z,3.93
2018-04-17T17:34:42.891Z,8.20
2018-04-17T17:37:11.147Z,4.57
2018-04-17T17:39:39.432Z,3.77
2018-04-17T17:42:06.938Z,4.67
2018-04-17T17:44:34.395Z,4.40
2018-04-17T17:47:01.909Z,6.43
2018-04-17T17:49:30.156Z,4.33
2018-04-17T17:51:57.656Z,3.70
2018-04-17T17:54:25.919Z,3.73
2018-04-17T17:56:53.407Z,4.47
2018-04-17T17:59:20.879Z,4.07
2018-04-17T18:01:48.386Z,4.60
2018-04-17T18:04:15.863Z,4.67
2018-04-17T18:06:44.116Z,5.43
2018-04-17T18:09:11.598Z,4.90
2018-04-17T18:11:39.966Z,5.00
2018-04-17T18:14:08.211Z,4.93
2018-04-17T18:16:35.699Z,4.40
2018-04-17T18:19:03.159Z,4.43
2018-04-17T18:21:31.407Z,4.40
2018-04-17T18:23:58.905Z,4.70
2018-04-17T18:26:26.418Z,4.53
2018-04-17T18:28:53.886Z,6.77
2018-04-17T18:31:21.365Z,6.23
2018-04-17T18:33:49.613Z,6.37
2018-04-17T18:36:17.092Z,5.40
2018-04-17T18:38:45.535Z,5.40
2018-04-17T18:41:13.051Z,6.40
2018-04-17T18:43:40.596Z,5.37
2018-04-17T18:46:08.840Z,4.97
2018-04-17T18:48:36.313Z,5.70
2018-04-17T18:51:03.815Z,5.40
2018-04-17T18:53:31.298Z,5.00
2018-04-17T18:55:58.787Z,5.17
2018-04-17T18:58:26.387Z,5.13
2018-04-17T19:00:53.851Z,4.73
2018-04-17T19:03:21.408Z,4.60
2018-04-17T19:05:48.949Z,4.73
2018-04-17T19:08:16.429Z,5.40
2018-04-17T19:10:43.904Z,5.53
2018-04-17T19:13:11.401Z,5.17
2018-04-17T19:15:39.639Z,5.20
2018-04-17T19:18:07.291Z,4.93
2018-04-17T19:20:34.830Z,5.77
2018-04-17T19:23:02.339Z,5.70
2018-04-17T19:25:29.807Z,5.90
2018-04-17T19:27:58.138Z,6.30
2018-04-17T19:30:25.620Z,6.17
2018-04-17T19:32:53.134Z,6.93
2018-04-17T19:35:20.599Z,7.40
2018-04-17T19:37:48.127Z,7.37
2018-04-17T19:40:16.410Z,7.77
2018-04-17T19:42:43.919Z,8.03
2018-04-17T19:45:11.405Z,9.33
2018-04-17T19:47:38.912Z,8.53
2018-04-17T19:50:06.372Z,9.10
2018-04-17T19:52:33.858Z,9.13
2018-04-17T19:55:01.317Z,8.27
2018-04-17T19:57:28.835Z,9.13
2018-04-17T19:59:56.303Z,7.53
2018-04-17T20:02:23.848Z,6.97
2018-04-17T20:04:51.410Z,6.93
2018-04-17T20:07:18.889Z,8.17
2018-04-17T20:09:46.409Z,8.10
2018-04-17T20:12:13.949Z,9.23
2018-04-17T20:14:42.263Z,7.80
2018-04-17T20:17:10.525Z,7.40
2018-04-17T20:19:38.068Z,7.57
2018-04-17T20:22:06.310Z,7.80
2018-04-17T20:24:33.793Z,8.07
2018-04-17T20:27:02.075Z,7.83
2018-04-17T20:29:30.390Z,7.50
2018-04-17T20:31:57.891Z,7.40
2018-04-17T20:34:25.401Z,6.97
2018-04-17T20:36:52.904Z,7.40
2018-04-17T20:39:20.385Z,7.40
2018-04-17T20:41:48.788Z,6.77
2018-04-17T20:44:16.279Z,7.10
2018-04-17T20:46:43.813Z,6.83
2018-04-17T20:49:11.290Z,6.93
2018-04-17T20:51:38.773Z,7.53
2018-04-17T20:54:06.276Z,6.83
2018-04-17T20:56:33.761Z,7.00
2018-04-17T20:59:01.292Z,7.17
2018-04-17T21:01:28.781Z,6.70
2018-04-17T21:03:56.263Z,6.50
2018-04-17T21:06:23.941Z,5.93
2018-04-17T21:08:52.215Z,6.47
2018-04-17T21:11:20.449Z,6.30
2018-04-17T21:13:47.941Z,6.90
2018-04-17T21:16:16.260Z,6.47
2018-04-17T21:18:43.743Z,6.80
2018-04-17T21:21:11.212Z,5.70
2018-04-17T21:23:38.693Z,6.70
2018-04-17T21:26:06.988Z,6.93
2018-04-17T21:28:34.555Z,7.00
2018-04-17T21:31:02.096Z,6.77
2018-04-17T21:33:30.363Z,6.80
2018-04-17T21:35:58.609Z,6.53
2018-04-17T21:38:26.091Z,6.73
2018-04-17T21:40:53.555Z,7.20
2018-04-17T21:43:21.831Z,6.80
2018-04-17T21:45:50.080Z,8.33
2018-04-17T21:48:17.562Z,6.80
2018-04-17T21:50:45.818Z,6.87
2018-04-17T21:53:14.807Z,6.93
2018-04-17T21:55:43.858Z,6.77
2018-04-17T21:58:11.387Z,7.13
2018-04-17T22:00:38.832Z,7.30
2018-04-17T22:03:06.432Z,6.60
2018-04-17T22:08:01.630Z,7.07
2018-04-17T22:10:30.034Z,7.73
2018-04-17T22:12:57.534Z,7.27
2018-04-17T22:15:25.041Z,7.30
2018-04-17T22:17:52.523Z,7.47
2018-04-17T22:20:20.014Z,7.20
2018-04-17T22:22:47.517Z,6.30
2018-04-17T22:25:15.027Z,7.57
2018-04-17T22:27:42.540Z,6.73
2018-04-17T22:30:10.004Z,7.37
2018-04-17T22:32:37.508Z,7.00
2018-04-17T22:35:05.782Z,6.43
2018-04-17T22:37:33.297Z,7.13
2018-04-17T22:40:00.775Z,6.83
2018-04-17T22:42:28.341Z,6.80
2018-04-17T22:44:55.831Z,7.00
2018-04-17T22:47:24.127Z,7.23
2018-04-17T22:49:51.591Z,6.80
2018-04-17T22:52:19.134Z,6.50
2018-04-17T22:54:47.399Z,7.00
2018-04-17T22:57:15.659Z,6.43
2018-04-17T22:59:43.199Z,7.23
2018-04-17T23:02:10.723Z,6.93
2018-04-17T23:04:38.284Z,7.20
2018-04-17T23:07:05.840Z,6.47
2018-04-17T23:09:33.335Z,7.33
2018-04-17T23:12:00.864Z,7.10
2018-04-17T23:14:28.380Z,7.20
2018-04-17T23:16:56.629Z,7.07
2018-04-17T23:19:24.133Z,7.37
2018-04-17T23:21:51.669Z,6.80
2018-04-17T23:24:19.937Z,7.07
2018-04-17T23:26:47.482Z,7.37
2018-04-17T23:29:15.817Z,7.20
2018-04-17T23:31:43.317Z,8.00
2018-04-17T23:34:10.843Z,7.40
2018-04-17T23:36:38.345Z,8.17
2018-04-17T23:39:05.862Z,8.23
2018-04-17T23:41:33.354Z,8.67
2018-04-17T23:44:00.847Z,7.43
2018-04-17T23:46:29.387Z,7.17
2018-04-17T23:48:56.954Z,7.30
2018-04-17T23:51:24.437Z,7.27
2018-04-17T23:53:52.732Z,7.73
2018-04-17T23:56:20.218Z,7.80
2018-04-17T23:58:47.732Z,7.73
